Redstone Arsenal, Alabama
Current Conditions -  °F | °C
As of 10:53 AM on Thursday 30 Oct 2014 (Local Time) from KHSV Reporting Station
Clear Clear  
Wind Chill: 59°   Ceiling: Unl
Heat Index: 59°   Visibility: 10mi
Dew Point: 41°   Wind: 3mph
Humidity: 51%   Direction: NA
Pressure: 30.14"   Gusts: NA
Location:  34.6546°N, 86.6455°W
Report Text: KHSV 301553Z VRB03KT 10SM CLR 15/05 A3014 RMK AO2 SLP206 T01500050
Loading
Personal Weather Stations






























Interactive Weather Map
Tropical Storm Tracking
New forecast layout! Learn more

10-Day Weather Forecast

Advertisements
Track Severe Weather on mobile